Time;durP1;ratioP1;P1;durP2;ratioP2;P2;SDS_P1;SDS_P2;PMS_P1;PMS_P2;Temp;Humidity;BMP_temperature;BMP_pressure;BME280_temperature;BME280_humidity;BME280_pressure;Samples;Min_cycle;Max_cycle;Signal;HPM_P1;HPM_P2
2022/05/03 00:00:17;;;;;;;9.57;4.90;;;;;;;;;;5006147;28;20862;-62
2022/05/03 00:03:11;;;;;;;6.80;4.67;;;;;;;;;;5024563;28;20527;-62
2022/05/03 00:05:42;;;;;;;9.47;4.60;;;;;;;;;;4999603;28;20474;-62
2022/05/03 00:08:11;;;;;;;7.43;4.63;;;;;;;;;;5006808;28;20480;-63
2022/05/03 00:10:41;;;;;;;6.70;4.37;;;;;;;;;;5007591;28;20447;-62
2022/05/03 00:13:15;;;;;;;6.90;4.40;;;;;;;;;;5008125;28;20452;-62
2022/05/03 00:15:42;;;;;;;10.33;4.20;;;;;;;;;;5002472;28;20460;-63
2022/05/03 00:18:09;;;;;;;7.50;3.97;;;;;;;;;;4988523;28;20519;-63
2022/05/03 00:20:36;;;;;;;7.23;4.40;;;;;;;;;;4987626;28;20463;-63
2022/05/03 00:23:03;;;;;;;7.10;4.40;;;;;;;;;;4939192;28;20895;-63
2022/05/03 00:25:47;;;;;;;7.13;4.17;;;;;;;;;;4974311;28;20490;-63
2022/05/03 00:28:14;;;;;;;7.27;4.07;;;;;;;;;;4971288;28;20519;-63
2022/05/03 00:30:41;;;;;;;6.77;4.20;;;;;;;;;;5002068;28;20442;-63
2022/05/03 00:33:09;;;;;;;6.10;3.93;;;;;;;;;;4978712;28;20473;-62
2022/05/03 00:35:35;;;;;;;9.23;4.10;;;;;;;;;;5010500;28;20497;-62
2022/05/03 00:38:03;;;;;;;8.23;4.40;;;;;;;;;;5008616;28;20800;-63
2022/05/03 00:40:31;;;;;;;5.93;4.30;;;;;;;;;;5018271;28;20458;-62
2022/05/03 00:43:11;;;;;;;10.97;5.43;;;;;;;;;;5009542;28;20468;-63
2022/05/03 00:45:42;;;;;;;9.07;4.23;;;;;;;;;;4989474;28;20487;-63
2022/05/03 00:48:35;;;;;;;7.43;4.50;;;;;;;;;;5006608;28;20466;-63
2022/05/03 00:51:10;;;;;;;6.57;4.33;;;;;;;;;;4992978;28;20969;-62
2022/05/03 00:53:43;;;;;;;7.33;4.07;;;;;;;;;;4993673;28;20461;-62
2022/05/03 00:56:26;;;;;;;8.40;4.23;;;;;;;;;;5010759;28;20507;-63
2022/05/03 00:59:28;;;;;;;7.30;4.10;;;;;;;;;;4995241;28;20455;-68
2022/05/03 01:02:05;;;;;;;8.57;4.13;;;;;;;;;;5017315;28;20446;-63
2022/05/03 01:04:32;;;;;;;8.93;4.30;;;;;;;;;;4993209;28;20449;-63
2022/05/03 01:07:02;;;;;;;7.23;4.47;;;;;;;;;;5020046;28;20854;-63
2022/05/03 01:09:33;;;;;;;7.40;4.40;;;;;;;;;;5031294;28;20442;-63
2022/05/03 01:12:13;;;;;;;5.80;4.07;;;;;;;;;;5029838;28;20854;-63
2022/05/03 01:14:48;;;;;;;7.90;4.40;;;;;;;;;;5031226;28;20437;-62
2022/05/03 01:17:43;;;;;;;6.87;4.07;;;;;;;;;;5030255;28;20455;-62
2022/05/03 01:20:13;;;;;;;5.90;4.00;;;;;;;;;;4996033;28;20463;-62
2022/05/03 01:22:58;;;;;;;7.57;4.00;;;;;;;;;;5011446;28;20445;-62
2022/05/03 01:25:45;;;;;;;7.37;4.43;;;;;;;;;;5010480;28;20447;-62
2022/05/03 01:28:22;;;;;;;7.37;4.47;;;;;;;;;;5009735;28;20492;-62
2022/05/03 01:31:09;;;;;;;7.07;4.03;;;;;;;;;;5010273;28;20442;-63
2022/05/03 01:33:41;;;;;;;5.73;4.10;;;;;;;;;;5000713;28;20455;-62
2022/05/03 01:36:08;;;;;;;7.00;4.33;;;;;;;;;;5005741;28;20545;-62
2022/05/03 01:38:53;;;;;;;7.40;4.13;;;;;;;;;;5007892;28;20516;-62
2022/05/03 01:41:48;;;;;;;5.30;3.80;;;;;;;;;;4996405;28;20441;-63
2022/05/03 01:44:18;;;;;;;5.67;4.07;;;;;;;;;;5010609;28;20454;-62
2022/05/03 01:46:44;;;;;;;6.80;4.07;;;;;;;;;;5010515;28;20466;-62
2022/05/03 01:52:20;;;;;;;7.83;4.20;;;;;;;;;;5008347;28;20454;-67
2022/05/03 01:55:07;;;;;;;5.20;3.77;;;;;;;;;;5005360;28;20562;-62
2022/05/03 01:57:41;;;;;;;4.43;3.37;;;;;;;;;;5009746;28;20457;-62
2022/05/03 02:00:08;;;;;;;10.37;3.90;;;;;;;;;;5007386;28;20461;-62
2022/05/03 02:02:59;;;;;;;7.07;3.60;;;;;;;;;;5021096;28;20430;-64
2022/05/03 02:05:32;;;;;;;8.37;3.93;;;;;;;;;;4992154;28;21226;-61
2022/05/03 02:07:59;;;;;;;6.03;3.80;;;;;;;;;;5009449;28;21323;-62
2022/05/03 02:10:44;;;;;;;8.03;4.17;;;;;;;;;;4991892;28;20465;-62
2022/05/03 02:13:28;;;;;;;8.00;4.10;;;;;;;;;;5006237;28;20488;-61
2022/05/03 02:15:57;;;;;;;5.80;3.63;;;;;;;;;;4992032;28;20454;-62
2022/05/03 02:18:26;;;;;;;5.73;3.83;;;;;;;;;;5008973;28;20485;-62
2022/05/03 02:21:00;;;;;;;5.87;3.60;;;;;;;;;;5008833;28;20474;-62
2022/05/03 02:23:42;;;;;;;7.07;4.20;;;;;;;;;;4992822;28;20469;-62
2022/05/03 02:26:30;;;;;;;6.47;3.87;;;;;;;;;;5011385;28;20835;-64
2022/05/03 02:29:15;;;;;;;6.43;3.83;;;;;;;;;;5009209;28;20916;-61
2022/05/03 02:31:54;;;;;;;7.63;4.33;;;;;;;;;;5024880;28;20449;-62
2022/05/03 02:34:40;;;;;;;6.90;4.13;;;;;;;;;;5008505;28;20430;-62
2022/05/03 02:37:10;;;;;;;7.53;4.20;;;;;;;;;;5012886;28;20442;-62
2022/05/03 02:39:38;;;;;;;7.73;4.47;;;;;;;;;;5032259;28;20546;-62
2022/05/03 02:42:05;;;;;;;6.63;4.03;;;;;;;;;;5013405;28;20443;-66
2022/05/03 02:44:31;;;;;;;7.93;4.20;;;;;;;;;;5009972;28;20499;-62
2022/05/03 02:47:22;;;;;;;7.07;4.03;;;;;;;;;;5010624;28;20483;-62
2022/05/03 02:49:50;;;;;;;8.67;4.50;;;;;;;;;;5021556;28;20450;-62
2022/05/03 02:52:40;;;;;;;8.47;4.17;;;;;;;;;;5019954;28;20443;-62
2022/05/03 02:55:17;;;;;;;7.47;4.43;;;;;;;;;;5027461;28;20434;-64
2022/05/03 02:58:20;;;;;;;5.73;4.13;;;;;;;;;;5008654;28;20438;-62
2022/05/03 03:03:54;;;;;;;7.40;4.67;;;;;;;;;;5028161;28;20503;-61
2022/05/03 03:06:21;;;;;;;8.17;4.73;;;;;;;;;;5012498;28;21060;-62
2022/05/03 03:09:07;;;;;;;6.63;4.50;;;;;;;;;;5009149;28;20434;-62
2022/05/03 03:11:42;;;;;;;7.10;4.33;;;;;;;;;;5010111;28;20501;-62
2022/05/03 03:14:10;;;;;;;5.50;3.97;;;;;;;;;;5011297;28;20429;-61
2022/05/03 03:16:44;;;;;;;7.07;4.93;;;;;;;;;;5024926;28;20454;-61
2022/05/03 03:19:14;;;;;;;8.17;4.73;;;;;;;;;;5028685;28;20526;-62
2022/05/03 03:21:41;;;;;;;8.23;4.43;;;;;;;;;;5024597;28;20496;-61
2022/05/03 03:24:08;;;;;;;8.37;4.87;;;;;;;;;;5009427;28;20537;-61
2022/05/03 03:26:35;;;;;;;6.27;3.97;;;;;;;;;;5006932;28;20454;-63
2022/05/03 03:29:01;;;;;;;7.87;4.70;;;;;;;;;;5017082;28;20477;-61
2022/05/03 03:31:28;;;;;;;6.50;4.27;;;;;;;;;;4993572;28;20453;-62
2022/05/03 03:33:55;;;;;;;7.07;4.60;;;;;;;;;;4996952;28;20517;-61
2022/05/03 03:36:22;;;;;;;8.40;4.17;;;;;;;;;;5025002;28;20553;-62
2022/05/03 03:38:49;;;;;;;6.93;4.20;;;;;;;;;;5008513;28;20439;-62
2022/05/03 03:41:16;;;;;;;7.30;4.63;;;;;;;;;;5038964;28;20429;-62
2022/05/03 03:43:45;;;;;;;7.50;4.80;;;;;;;;;;5012940;28;20449;-62
2022/05/03 03:46:12;;;;;;;8.47;5.33;;;;;;;;;;5026324;28;20515;-62
2022/05/03 03:48:39;;;;;;;8.50;4.80;;;;;;;;;;5017165;28;20494;-62
2022/05/03 03:51:06;;;;;;;10.17;4.83;;;;;;;;;;5004164;28;20458;-62
2022/05/03 03:53:33;;;;;;;7.40;4.60;;;;;;;;;;5019283;28;20445;-61
2022/05/03 03:56:00;;;;;;;8.13;4.90;;;;;;;;;;5027962;28;20553;-62
2022/05/03 03:58:26;;;;;;;8.17;4.83;;;;;;;;;;5010029;28;20465;-62
2022/05/03 04:00:53;;;;;;;5.53;4.50;;;;;;;;;;5027360;28;20471;-62
2022/05/03 04:03:20;;;;;;;8.63;4.50;;;;;;;;;;5026291;28;20458;-62
2022/05/03 04:05:47;;;;;;;6.03;4.13;;;;;;;;;;5007837;28;20810;-62
2022/05/03 04:08:19;;;;;;;7.07;4.47;;;;;;;;;;5026845;28;20577;-62
2022/05/03 04:10:45;;;;;;;6.57;4.47;;;;;;;;;;5009420;28;20453;-62
2022/05/03 04:13:13;;;;;;;6.50;4.40;;;;;;;;;;5025840;28;20533;-62
2022/05/03 04:15:40;;;;;;;9.23;4.90;;;;;;;;;;5011602;28;21021;-62
2022/05/03 04:18:07;;;;;;;7.47;3.97;;;;;;;;;;5025890;28;20458;-65
2022/05/03 04:20:34;;;;;;;5.73;3.90;;;;;;;;;;5007435;28;20537;-63
2022/05/03 04:23:01;;;;;;;6.73;3.90;;;;;;;;;;5022680;28;20528;-64
2022/05/03 04:25:28;;;;;;;7.93;3.77;;;;;;;;;;5030655;28;20246;-66
2022/05/03 04:27:56;;;;;;;7.37;4.10;;;;;;;;;;5035782;28;20481;-65
2022/05/03 04:30:24;;;;;;;6.40;3.93;;;;;;;;;;4995737;28;20198;-63
2022/05/03 04:32:51;;;;;;;6.03;3.33;;;;;;;;;;4980986;28;20453;-64
2022/05/03 04:35:18;;;;;;;6.33;3.90;;;;;;;;;;4990094;28;20455;-66
2022/05/03 04:37:45;;;;;;;6.23;3.57;;;;;;;;;;5032637;28;20195;-66
2022/05/03 04:40:12;;;;;;;6.00;3.70;;;;;;;;;;5035279;28;20699;-66
2022/05/03 04:42:44;;;;;;;5.60;3.70;;;;;;;;;;5024799;28;20223;-66
2022/05/03 04:45:13;;;;;;;5.43;3.80;;;;;;;;;;5034378;28;20191;-65
2022/05/03 04:47:39;;;;;;;5.53;3.87;;;;;;;;;;5036546;28;20850;-65
2022/05/03 04:50:07;;;;;;;6.37;3.83;;;;;;;;;;5035050;28;20455;-67
2022/05/03 04:52:34;;;;;;;5.73;3.70;;;;;;;;;;5035315;28;20199;-66
2022/05/03 04:55:00;;;;;;;5.07;3.30;;;;;;;;;;5011082;28;20457;-66
2022/05/03 04:57:28;;;;;;;6.47;3.93;;;;;;;;;;5032382;28;20274;-67
2022/05/03 04:59:54;;;;;;;7.53;3.77;;;;;;;;;;5033295;28;20440;-65
2022/05/03 05:02:21;;;;;;;5.97;3.40;;;;;;;;;;5033948;28;20440;-65
2022/05/03 05:04:48;;;;;;;5.70;3.30;;;;;;;;;;5032264;28;20232;-65
2022/05/03 05:07:16;;;;;;;9.37;4.23;;;;;;;;;;5011495;28;20968;-67
2022/05/03 05:10:23;;;;;;;6.17;3.60;;;;;;;;;;5033428;28;20203;-65
2022/05/03 05:12:30;;;;;;;6.00;3.90;;;;;;;;;;5033330;28;20252;-64
2022/05/03 05:14:57;;;;;;;8.80;3.60;;;;;;;;;;5032570;28;20299;-65
2022/05/03 05:17:24;;;;;;;6.20;3.73;;;;;;;;;;5032091;28;20183;-65
2022/05/03 05:19:51;;;;;;;6.47;3.63;;;;;;;;;;5034037;28;20199;-64
2022/05/03 05:22:19;;;;;;;4.37;3.10;;;;;;;;;;5029856;28;20206;-66
2022/05/03 05:24:47;;;;;;;6.87;3.90;;;;;;;;;;4967039;28;20249;-63
2022/05/03 05:27:14;;;;;;;5.70;4.10;;;;;;;;;;5000654;28;20302;-64
2022/05/03 05:29:58;;;;;;;6.67;3.80;;;;;;;;;;5018169;28;20183;-63
2022/05/03 05:32:25;;;;;;;9.30;4.47;;;;;;;;;;5019582;28;20188;-64
2022/05/03 05:34:52;;;;;;;5.17;3.80;;;;;;;;;;5019554;28;20199;-65
2022/05/03 05:37:19;;;;;;;11.27;4.33;;;;;;;;;;5022129;28;20200;-63
2022/05/03 05:39:49;;;;;;;7.27;4.00;;;;;;;;;;5020297;28;20273;-63
2022/05/03 05:42:16;;;;;;;6.53;3.70;;;;;;;;;;5006937;28;20195;-65
2022/05/03 05:44:43;;;;;;;7.10;3.80;;;;;;;;;;5021111;28;20639;-64
2022/05/03 05:47:11;;;;;;;4.87;3.80;;;;;;;;;;5022104;28;20184;-63
2022/05/03 05:49:38;;;;;;;5.43;3.67;;;;;;;;;;5019058;28;20222;-63
2022/05/03 05:54:51;;;;;;;9.17;4.30;;;;;;;;;;5018025;28;20798;-64
2022/05/03 05:57:36;;;;;;;7.47;4.33;;;;;;;;;;5020773;28;20183;-63
2022/05/03 06:00:04;;;;;;;7.43;4.23;;;;;;;;;;5021695;28;20932;-63
2022/05/03 06:02:37;;;;;;;8.30;4.13;;;;;;;;;;5022911;28;20219;-64
2022/05/03 06:05:04;;;;;;;6.80;4.00;;;;;;;;;;5020413;28;20238;-64
2022/05/03 06:07:31;;;;;;;5.43;4.00;;;;;;;;;;5021208;28;20285;-66
2022/05/03 06:09:58;;;;;;;6.97;4.43;;;;;;;;;;5020000;28;20756;-64
2022/05/03 06:12:25;;;;;;;5.70;4.40;;;;;;;;;;5022017;28;20282;-64
2022/05/03 06:14:52;;;;;;;6.07;4.07;;;;;;;;;;5021606;28;20257;-63
2022/05/03 06:17:19;;;;;;;7.50;4.30;;;;;;;;;;5020574;28;20319;-64
2022/05/03 06:19:46;;;;;;;7.10;4.80;;;;;;;;;;5022986;28;20244;-63
2022/05/03 06:22:14;;;;;;;6.70;4.30;;;;;;;;;;5005343;28;20656;-63
2022/05/03 06:24:42;;;;;;;7.50;4.20;;;;;;;;;;5028731;28;20239;-66
2022/05/03 06:27:09;;;;;;;6.67;4.50;;;;;;;;;;5010905;28;20190;-64
2022/05/03 06:29:36;;;;;;;8.27;4.37;;;;;;;;;;5034708;28;20261;-65
2022/05/03 06:32:04;;;;;;;8.30;4.83;;;;;;;;;;5037921;28;20199;-64
2022/05/03 06:34:31;;;;;;;7.43;4.40;;;;;;;;;;5032609;28;20207;-65
2022/05/03 06:36:58;;;;;;;8.67;4.87;;;;;;;;;;5035879;28;20278;-64
2022/05/03 06:39:25;;;;;;;9.00;5.10;;;;;;;;;;5031998;28;20219;-64
2022/05/03 06:41:52;;;;;;;7.63;4.43;;;;;;;;;;5037441;28;21181;-64
2022/05/03 06:44:18;;;;;;;7.57;4.80;;;;;;;;;;5035131;28;20268;-64
2022/05/03 06:46:45;;;;;;;8.53;5.17;;;;;;;;;;5032618;28;20203;-64
2022/05/03 06:49:31;;;;;;;14.57;4.70;;;;;;;;;;5026270;28;20926;-63
2022/05/03 06:51:58;;;;;;;7.37;4.90;;;;;;;;;;5025200;28;20201;-63
2022/05/03 06:54:25;;;;;;;6.90;5.30;;;;;;;;;;5025372;28;20755;-64
2022/05/03 06:56:52;;;;;;;8.77;5.40;;;;;;;;;;5024132;28;20250;-63
2022/05/03 06:59:19;;;;;;;8.40;5.20;;;;;;;;;;5023119;28;20202;-64
2022/05/03 07:01:46;;;;;;;10.37;5.87;;;;;;;;;;5010389;28;20746;-65
2022/05/03 07:04:13;;;;;;;6.40;5.20;;;;;;;;;;5026858;28;20203;-64
2022/05/03 07:06:40;;;;;;;8.53;5.60;;;;;;;;;;5040151;28;20555;-64
2022/05/03 07:09:25;;;;;;;8.70;5.57;;;;;;;;;;5031236;28;20207;-65
2022/05/03 07:11:51;;;;;;;8.37;5.50;;;;;;;;;;5026251;28;20270;-64
2022/05/03 07:14:36;;;;;;;8.53;5.30;;;;;;;;;;5028698;28;20178;-64
2022/05/03 07:17:04;;;;;;;7.07;5.33;;;;;;;;;;5028236;28;20522;-63
2022/05/03 07:22:49;;;;;;;8.63;5.47;;;;;;;;;;5026420;28;20200;-64
2022/05/03 07:25:16;;;;;;;8.20;5.60;;;;;;;;;;5027581;28;20457;-64
2022/05/03 07:27:46;;;;;;;9.67;5.37;;;;;;;;;;5027341;28;20241;-63
2022/05/03 07:30:13;;;;;;;7.90;5.43;;;;;;;;;;5027479;28;20278;-63
2022/05/03 07:32:41;;;;;;;8.57;5.40;;;;;;;;;;5012119;28;20195;-63
2022/05/03 07:35:08;;;;;;;8.17;5.70;;;;;;;;;;5004654;28;20196;-64
2022/05/03 07:37:52;;;;;;;7.47;5.87;;;;;;;;;;5027565;28;20575;-64
2022/05/03 07:40:19;;;;;;;7.67;6.10;;;;;;;;;;5031737;28;20272;-63
2022/05/03 07:42:46;;;;;;;9.37;5.73;;;;;;;;;;5008743;28;20203;-63
2022/05/03 07:45:13;;;;;;;10.07;6.00;;;;;;;;;;5027478;28;20246;-63
2022/05/03 07:47:40;;;;;;;11.53;6.00;;;;;;;;;;5026076;28;20206;-63
2022/05/03 07:50:07;;;;;;;9.23;5.60;;;;;;;;;;5020303;28;20247;-64
2022/05/03 07:52:36;;;;;;;10.43;5.90;;;;;;;;;;5026788;28;20198;-63
2022/05/03 07:55:05;;;;;;;9.80;5.80;;;;;;;;;;5011320;28;20271;-63
2022/05/03 07:57:32;;;;;;;9.60;5.70;;;;;;;;;;5009904;28;20195;-63
2022/05/03 07:59:59;;;;;;;8.43;5.97;;;;;;;;;;5026511;28;20188;-63
2022/05/03 08:02:26;;;;;;;7.23;5.73;;;;;;;;;;5026528;28;20192;-63
2022/05/03 08:04:53;;;;;;;10.80;6.00;;;;;;;;;;5024896;28;20204;-63
2022/05/03 08:07:20;;;;;;;10.07;6.20;;;;;;;;;;5022720;28;20188;-63
2022/05/03 08:09:48;;;;;;;8.83;6.47;;;;;;;;;;5023103;28;20390;-63
2022/05/03 08:12:17;;;;;;;6.93;5.97;;;;;;;;;;5026360;28;20733;-63
2022/05/03 08:14:46;;;;;;;8.37;5.67;;;;;;;;;;5026897;28;20238;-63
2022/05/03 08:17:13;;;;;;;9.90;6.27;;;;;;;;;;5027072;28;20192;-63
2022/05/03 08:19:40;;;;;;;9.47;6.60;;;;;;;;;;5025795;28;20207;-63
2022/05/03 08:22:25;;;;;;;9.00;6.33;;;;;;;;;;5021199;28;20262;-63
2022/05/03 08:24:52;;;;;;;9.43;5.90;;;;;;;;;;5039401;28;20700;-63
2022/05/03 08:27:19;;;;;;;9.23;6.27;;;;;;;;;;5025184;28;20191;-63
2022/05/03 08:29:46;;;;;;;10.33;5.90;;;;;;;;;;5028102;28;20972;-63
2022/05/03 08:32:13;;;;;;;11.40;7.40;;;;;;;;;;5027011;28;20206;-63
2022/05/03 08:34:40;;;;;;;10.40;6.93;;;;;;;;;;5047470;28;20194;-63
2022/05/03 08:42:37;;;;;;;8.93;6.27;;;;;;;;;;5030732;28;20218;-62
2022/05/03 08:45:04;;;;;;;10.17;6.23;;;;;;;;;;5026443;28;20207;-62
2022/05/03 08:47:32;;;;;;;10.70;6.33;;;;;;;;;;5026321;28;20258;-63
2022/05/03 08:50:02;;;;;;;9.90;6.00;;;;;;;;;;5014226;28;20277;-62
2022/05/03 08:52:33;;;;;;;7.20;5.33;;;;;;;;;;5025661;28;20539;-62
2022/05/03 08:55:18;;;;;;;6.60;4.87;;;;;;;;;;5012815;28;20195;-63
2022/05/03 08:57:45;;;;;;;5.07;4.20;;;;;;;;;;5008201;28;20195;-63
2022/05/03 09:00:13;;;;;;;5.60;4.47;;;;;;;;;;5027079;28;20223;-62
2022/05/03 09:02:43;;;;;;;6.27;4.73;;;;;;;;;;5026454;28;20196;-63
2022/05/03 09:05:11;;;;;;;6.97;4.07;;;;;;;;;;5025049;28;20191;-62
2022/05/03 09:07:38;;;;;;;5.37;4.13;;;;;;;;;;5027177;28;20688;-63
2022/05/03 09:10:22;;;;;;;9.07;4.27;;;;;;;;;;5027397;28;20216;-62
2022/05/03 09:12:49;;;;;;;11.97;5.13;;;;;;;;;;5026429;28;20191;-59
2022/05/03 09:15:32;;;;;;;46.20;7.27;;;;;;;;;;5018447;28;20197;-60
2022/05/03 09:17:59;;;;;;;10.73;5.20;;;;;;;;;;5028421;28;20855;-59
2022/05/03 09:26:18;;;;;;;6.43;5.10;;;;;;;;;;5021161;28;20620;-59
2022/05/03 09:28:49;;;;;;;9.53;4.77;;;;;;;;;;5024261;28;20231;-59
2022/05/03 09:31:30;;;;;;;7.60;5.13;;;;;;;;;;5030415;28;20200;-59
2022/05/03 09:33:58;;;;;;;8.23;5.30;;;;;;;;;;5012311;28;20203;-59
2022/05/03 09:36:25;;;;;;;11.90;6.27;;;;;;;;;;5029973;28;20210;-58
2022/05/03 09:39:24;;;;;;;9.67;6.60;;;;;;;;;;5029357;28;20194;-59
2022/05/03 09:42:10;;;;;;;9.57;6.67;;;;;;;;;;5031264;28;20199;-59
2022/05/03 09:44:40;;;;;;;9.93;7.37;;;;;;;;;;5029878;28;20286;-59
2022/05/03 09:47:11;;;;;;;11.67;6.93;;;;;;;;;;5029142;28;20677;-59
2022/05/03 09:49:39;;;;;;;13.63;8.33;;;;;;;;;;5006278;28;20232;-59
2022/05/03 09:52:06;;;;;;;10.50;7.53;;;;;;;;;;5029027;28;20268;-59
2022/05/03 09:54:49;;;;;;;17.50;10.40;;;;;;;;;;5029939;28;20191;-59
2022/05/03 09:57:19;;;;;;;20.53;16.70;;;;;;;;;;5030063;28;20716;-59
2022/05/03 09:59:47;;;;;;;16.57;12.67;;;;;;;;;;5028140;28;20226;-58
2022/05/03 10:02:15;;;;;;;14.47;10.37;;;;;;;;;;5028781;28;20208;-59
2022/05/03 10:04:43;;;;;;;17.73;11.13;;;;;;;;;;5028312;28;20203;-59
2022/05/03 10:07:12;;;;;;;12.97;9.47;;;;;;;;;;5028352;28;20187;-59
2022/05/03 10:09:39;;;;;;;12.00;9.30;;;;;;;;;;5029661;28;20518;-59
2022/05/03 10:12:07;;;;;;;14.50;9.63;;;;;;;;;;5028353;28;20927;-59
2022/05/03 10:14:35;;;;;;;12.97;8.57;;;;;;;;;;5012323;28;20194;-59
2022/05/03 10:23:00;;;;;;;11.83;7.40;;;;;;;;;;5027450;28;20205;-58
2022/05/03 10:25:30;;;;;;;10.47;7.77;;;;;;;;;;5029620;28;20219;-59
2022/05/03 10:27:57;;;;;;;12.50;8.77;;;;;;;;;;5028032;28;20689;-59
2022/05/03 10:30:26;;;;;;;9.93;7.93;;;;;;;;;;5015269;28;20225;-59
2022/05/03 10:33:31;;;;;;;10.37;8.13;;;;;;;;;;5029767;28;20199;-59
2022/05/03 10:36:00;;;;;;;11.13;8.03;;;;;;;;;;4917475;29;20271;-59
2022/05/03 10:38:43;;;;;;;11.30;9.47;;;;;;;;;;4927824;29;20661;-59
2022/05/03 10:41:11;;;;;;;11.03;8.13;;;;;;;;;;4987878;28;20210;-59
2022/05/03 10:43:38;;;;;;;9.97;7.50;;;;;;;;;;5029262;28;20927;-60
2022/05/03 10:46:08;;;;;;;11.87;7.87;;;;;;;;;;5011540;28;20182;-59
2022/05/03 10:48:37;;;;;;;9.33;7.00;;;;;;;;;;5012031;28;20313;-59
2022/05/03 10:51:04;;;;;;;9.10;7.27;;;;;;;;;;5011166;28;20200;-60
2022/05/03 10:53:32;;;;;;;7.40;6.17;;;;;;;;;;5027434;28;20676;-60
2022/05/03 10:56:06;;;;;;;9.07;7.13;;;;;;;;;;5012812;28;20188;-59
2022/05/03 10:58:34;;;;;;;8.67;6.83;;;;;;;;;;5011761;28;20565;-59
2022/05/03 11:01:01;;;;;;;8.93;6.33;;;;;;;;;;5028867;28;20179;-59
2022/05/03 11:03:28;;;;;;;9.70;6.60;;;;;;;;;;5026942;28;20266;-61
2022/05/03 11:06:15;;;;;;;8.77;6.13;;;;;;;;;;5026737;28;20639;-59
2022/05/03 11:09:02;;;;;;;7.10;5.50;;;;;;;;;;5028669;28;20179;-59
2022/05/03 11:14:15;;;;;;;7.47;5.80;;;;;;;;;;5024503;28;20194;-59
2022/05/03 11:16:49;;;;;;;6.40;5.10;;;;;;;;;;5025998;28;20223;-60
2022/05/03 11:19:17;;;;;;;4.43;3.70;;;;;;;;;;5026554;28;20226;-60
2022/05/03 11:21:46;;;;;;;6.23;4.63;;;;;;;;;;5028687;28;20188;-59
2022/05/03 11:24:19;;;;;;;6.60;4.90;;;;;;;;;;5011097;28;20227;-59
2022/05/03 11:26:47;;;;;;;6.33;4.73;;;;;;;;;;5011356;28;20203;-60
2022/05/03 11:29:14;;;;;;;7.33;4.97;;;;;;;;;;5010734;28;20215;-59
2022/05/03 11:31:48;;;;;;;4.90;4.27;;;;;;;;;;5026500;28;20649;-58
2022/05/03 11:34:15;;;;;;;5.27;3.93;;;;;;;;;;5024550;28;20238;-59
2022/05/03 11:36:43;;;;;;;6.43;3.83;;;;;;;;;;5023002;28;20650;-59
2022/05/03 11:39:10;;;;;;;14.67;6.43;;;;;;;;;;5020543;28;20198;-60
2022/05/03 11:41:37;;;;;;;4.67;3.53;;;;;;;;;;5006919;28;20210;-59
2022/05/03 11:44:21;;;;;;;4.20;3.70;;;;;;;;;;5026033;28;20221;-58
2022/05/03 11:46:48;;;;;;;3.70;3.23;;;;;;;;;;5011145;28;20176;-58
2022/05/03 11:49:16;;;;;;;4.17;3.77;;;;;;;;;;5016084;28;20270;-59
2022/05/03 11:57:33;;;;;;;5.80;4.07;;;;;;;;;;5027916;28;20191;-58
2022/05/03 12:00:01;;;;;;;4.53;3.83;;;;;;;;;;5009275;28;20325;-58
2022/05/03 12:02:36;;;;;;;4.93;4.20;;;;;;;;;;5028173;28;20649;-58
2022/05/03 12:05:18;;;;;;;5.67;4.10;;;;;;;;;;5008161;28;20196;-58
2022/05/03 12:07:50;;;;;;;4.50;3.60;;;;;;;;;;5026044;28;20197;-58
2022/05/03 12:10:37;;;;;;;4.10;3.47;;;;;;;;;;5047667;28;20569;-57
2022/05/03 12:13:13;;;;;;;5.67;4.13;;;;;;;;;;5027325;28;20266;-58
2022/05/03 12:15:41;;;;;;;5.80;4.17;;;;;;;;;;5007678;28;20580;-58
2022/05/03 12:18:11;;;;;;;5.83;4.87;;;;;;;;;;5027520;28;20207;-57
2022/05/03 12:20:42;;;;;;;7.00;5.50;;;;;;;;;;5025750;28;20204;-59
2022/05/03 12:23:13;;;;;;;7.00;5.73;;;;;;;;;;5027635;28;20196;-58
2022/05/03 12:25:42;;;;;;;7.30;5.97;;;;;;;;;;5009494;28;20531;-58
2022/05/03 12:28:09;;;;;;;8.43;5.90;;;;;;;;;;5018610;28;20195;-59
2022/05/03 12:30:36;;;;;;;7.40;6.17;;;;;;;;;;4990468;28;20216;-58
2022/05/03 12:33:11;;;;;;;8.77;6.70;;;;;;;;;;5015197;28;20204;-59
2022/05/03 12:35:39;;;;;;;8.77;6.60;;;;;;;;;;5007761;28;20190;-59
2022/05/03 12:38:10;;;;;;;9.67;7.10;;;;;;;;;;5007960;28;20888;-59
2022/05/03 12:40:56;;;;;;;9.67;6.47;;;;;;;;;;5019926;28;20662;-58
2022/05/03 12:43:26;;;;;;;6.43;5.73;;;;;;;;;;5027529;28;20206;-59
2022/05/03 12:46:00;;;;;;;7.30;5.83;;;;;;;;;;5012286;28;20191;-58
2022/05/03 12:48:34;;;;;;;5.97;4.80;;;;;;;;;;5018108;28;20666;-59
2022/05/03 12:51:01;;;;;;;6.37;4.87;;;;;;;;;;5012829;28;20621;-58
2022/05/03 12:53:28;;;;;;;5.87;4.30;;;;;;;;;;5029270;28;20198;-59
2022/05/03 12:55:56;;;;;;;7.10;4.97;;;;;;;;;;5031199;28;20191;-59
2022/05/03 12:58:24;;;;;;;7.90;5.23;;;;;;;;;;5019681;28;20207;-59
2022/05/03 13:01:11;;;;;;;5.27;4.40;;;;;;;;;;4999072;28;20170;-59
2022/05/03 13:03:38;;;;;;;4.87;3.70;;;;;;;;;;5030203;28;20549;-59
2022/05/03 13:06:05;;;;;;;9.77;7.53;;;;;;;;;;5029786;28;20198;-59
2022/05/03 13:08:33;;;;;;;22.87;14.50;;;;;;;;;;5030897;28;20183;-59
2022/05/03 13:11:00;;;;;;;6.07;4.37;;;;;;;;;;5029561;28;20223;-59
2022/05/03 13:13:28;;;;;;;15.43;10.13;;;;;;;;;;5027448;28;20288;-61
2022/05/03 13:15:55;;;;;;;20.20;12.57;;;;;;;;;;5032458;28;20190;-59
2022/05/03 13:18:23;;;;;;;15.33;9.90;;;;;;;;;;5031162;28;20226;-60
2022/05/03 13:20:50;;;;;;;5.23;3.50;;;;;;;;;;5030839;28;20206;-59
2022/05/03 13:23:17;;;;;;;23.30;15.47;;;;;;;;;;5029449;28;20195;-59
2022/05/03 13:25:44;;;;;;;4.60;3.23;;;;;;;;;;5031130;28;20198;-59
2022/05/03 13:28:11;;;;;;;3.30;2.57;;;;;;;;;;5030753;28;20188;-59
2022/05/03 13:30:38;;;;;;;2.60;1.83;;;;;;;;;;5012244;28;20748;-60
2022/05/03 13:33:05;;;;;;;2.37;1.80;;;;;;;;;;4993688;28;20207;-59
2022/05/03 13:41:03;;;;;;;3.00;2.27;;;;;;;;;;5041885;28;20198;-60
2022/05/03 13:43:30;;;;;;;2.37;2.10;;;;;;;;;;5033369;28;20185;-60
2022/05/03 13:45:58;;;;;;;2.87;1.93;;;;;;;;;;5043788;28;20190;-60
2022/05/03 13:48:26;;;;;;;2.80;2.00;;;;;;;;;;5013061;28;20537;-58
2022/05/03 13:50:53;;;;;;;7.10;2.33;;;;;;;;;;5029550;28;20597;-58
2022/05/03 13:53:21;;;;;;;5.07;3.13;;;;;;;;;;5030003;28;20286;-58
2022/05/03 13:55:48;;;;;;;4.40;3.17;;;;;;;;;;5023271;28;20239;-61
2022/05/03 13:58:15;;;;;;;2.93;2.23;;;;;;;;;;5010650;28;20259;-58
2022/05/03 14:00:43;;;;;;;2.90;2.27;;;;;;;;;;5010281;28;20222;-58
2022/05/03 14:03:12;;;;;;;3.00;2.27;;;;;;;;;;5009997;28;20200;-58
2022/05/03 14:05:40;;;;;;;3.37;2.50;;;;;;;;;;5009976;28;20922;-58
2022/05/03 14:08:10;;;;;;;3.67;3.00;;;;;;;;;;5010089;28;20200;-59
2022/05/03 14:10:37;;;;;;;5.03;2.90;;;;;;;;;;5010649;28;20255;-58
2022/05/03 14:13:04;;;;;;;4.47;3.70;;;;;;;;;;5009419;28;20196;-59
2022/05/03 14:15:31;;;;;;;7.47;3.77;;;;;;;;;;4992922;28;20238;-58
2022/05/03 14:17:58;;;;;;;7.07;4.70;;;;;;;;;;5010050;28;20196;-58
2022/05/03 14:20:26;;;;;;;7.00;6.30;;;;;;;;;;5010122;28;20560;-59
2022/05/03 14:22:53;;;;;;;20.17;15.13;;;;;;;;;;5004566;28;20282;-59
2022/05/03 14:25:23;;;;;;;15.33;9.80;;;;;;;;;;5029412;28;20223;-58
2022/05/03 14:27:50;;;;;;;10.30;6.87;;;;;;;;;;5012096;28;20274;-59
2022/05/03 14:30:18;;;;;;;13.00;7.80;;;;;;;;;;5029273;28;20223;-58
2022/05/03 14:32:45;;;;;;;9.93;7.53;;;;;;;;;;5029946;28;20539;-59
2022/05/03 14:35:12;;;;;;;10.07;5.73;;;;;;;;;;5029502;28;20196;-59
2022/05/03 14:37:58;;;;;;;4.87;4.27;;;;;;;;;;5028522;28;20305;-59
2022/05/03 14:40:26;;;;;;;8.17;4.63;;;;;;;;;;5039936;28;20217;-59
2022/05/03 14:42:53;;;;;;;5.90;4.00;;;;;;;;;;5049358;28;20290;-58
2022/05/03 14:45:21;;;;;;;5.37;4.63;;;;;;;;;;5049181;28;20260;-58
2022/05/03 14:47:48;;;;;;;5.13;4.13;;;;;;;;;;5049259;28;20605;-59
2022/05/03 14:50:14;;;;;;;6.07;4.30;;;;;;;;;;5036993;28;20238;-58
2022/05/03 14:53:00;;;;;;;5.53;4.07;;;;;;;;;;5037873;28;20267;-59
2022/05/03 14:55:27;;;;;;;8.50;4.50;;;;;;;;;;5009323;28;20640;-58
2022/05/03 15:03:29;;;;;;;7.77;4.53;;;;;;;;;;5028482;28;20203;-62
2022/05/03 15:05:56;;;;;;;6.17;4.40;;;;;;;;;;5028962;28;20191;-62
2022/05/03 15:08:23;;;;;;;6.57;4.83;;;;;;;;;;5028584;28;20210;-62
2022/05/03 15:10:51;;;;;;;6.53;4.47;;;;;;;;;;5010977;28;20598;-62
2022/05/03 15:13:19;;;;;;;5.80;4.80;;;;;;;;;;5027857;28;20199;-63
2022/05/03 15:15:47;;;;;;;5.70;4.90;;;;;;;;;;5027941;28;20753;-63
2022/05/03 15:18:14;;;;;;;8.10;5.40;;;;;;;;;;5028913;28;20222;-62
2022/05/03 15:20:44;;;;;;;7.40;5.43;;;;;;;;;;5028549;28;20226;-63
2022/05/03 15:25:57;;;;;;;8.80;6.30;;;;;;;;;;5029008;28;20194;-62
2022/05/03 15:28:27;;;;;;;7.47;5.77;;;;;;;;;;5017755;28;20270;-62
2022/05/03 15:30:54;;;;;;;9.43;6.13;;;;;;;;;;5008829;28;20219;-63
2022/05/03 15:33:22;;;;;;;8.57;6.10;;;;;;;;;;5019429;28;20194;-63
2022/05/03 15:35:49;;;;;;;8.60;5.90;;;;;;;;;;5024813;28;20555;-62
2022/05/03 15:38:16;;;;;;;6.63;5.37;;;;;;;;;;5026178;28;20233;-66
2022/05/03 15:40:46;;;;;;;10.47;4.47;;;;;;;;;;5041218;28;20194;-60
2022/05/03 15:43:13;;;;;;;5.87;4.97;;;;;;;;;;5048391;28;20197;-59
2022/05/03 15:45:40;;;;;;;7.20;5.20;;;;;;;;;;5048136;28;20219;-61
2022/05/03 15:48:07;;;;;;;8.63;5.87;;;;;;;;;;5047449;28;20206;-62
2022/05/03 15:50:52;;;;;;;10.20;5.43;;;;;;;;;;4992544;28;20262;-60
2022/05/03 15:53:23;;;;;;;12.10;5.50;;;;;;;;;;5028072;28;20184;-61